sensor_id;sensor_type;location;lat;lon;timestamp;pressure;altitude;pressure_sealevel;temperature;humidity
72560;BME280;62987;52.382;9.752;2022-10-16T00:01:07;100375.44;;;15.32;64.90
72560;BME280;62987;52.382;9.752;2022-10-16T00:03:37;100365.66;;;15.31;64.90
72560;BME280;62987;52.382;9.752;2022-10-16T00:06:08;100372.75;;;15.32;65.29
72560;BME280;62987;52.382;9.752;2022-10-16T00:08:37;100374.47;;;15.33;64.78
72560;BME280;62987;52.382;9.752;2022-10-16T00:11:07;100392.47;;;15.31;65.50
72560;BME280;62987;52.382;9.752;2022-10-16T00:13:38;100383.28;;;15.35;65.19
72560;BME280;62987;52.382;9.752;2022-10-16T00:16:07;100382.81;;;15.29;64.97
72560;BME280;62987;52.382;9.752;2022-10-16T00:18:35;100375.06;;;15.24;65.20
72560;BME280;62987;52.382;9.752;2022-10-16T00:21:07;100376.06;;;15.23;65.37
72560;BME280;62987;52.382;9.752;2022-10-16T00:23:56;100387.50;;;15.25;65.02
72560;BME280;62987;52.382;9.752;2022-10-16T00:26:26;100389.44;;;15.23;64.93
72560;BME280;62987;52.382;9.752;2022-10-16T00:28:54;100389.44;;;15.23;65.16
72560;BME280;62987;52.382;9.752;2022-10-16T00:31:23;100389.94;;;15.15;65.55
72560;BME280;62987;52.382;9.752;2022-10-16T00:33:51;100395.59;;;15.11;64.91
72560;BME280;62987;52.382;9.752;2022-10-16T00:36:22;100392.28;;;15.07;65.25
72560;BME280;62987;52.382;9.752;2022-10-16T00:38:51;100399.25;;;15.10;65.78
72560;BME280;62987;52.382;9.752;2022-10-16T00:41:23;100402.03;;;15.08;64.94
72560;BME280;62987;52.382;9.752;2022-10-16T00:43:54;100404.81;;;15.07;64.85
72560;BME280;62987;52.382;9.752;2022-10-16T00:46:24;100401.56;;;15.02;65.22
72560;BME280;62987;52.382;9.752;2022-10-16T00:48:57;100402.44;;;15.02;65.30
72560;BME280;62987;52.382;9.752;2022-10-16T00:51:32;100399.44;;;15.07;65.10
72560;BME280;62987;52.382;9.752;2022-10-16T00:54:02;100410.81;;;15.10;65.35
72560;BME280;62987;52.382;9.752;2022-10-16T00:56:31;100406.13;;;15.14;65.45
72560;BME280;62987;52.382;9.752;2022-10-16T00:59:01;100402.09;;;15.21;65.65
72560;BME280;62987;52.382;9.752;2022-10-16T01:01:30;100410.22;;;15.19;66.28
72560;BME280;62987;52.382;9.752;2022-10-16T01:03:58;100408.22;;;15.23;66.92
72560;BME280;62987;52.382;9.752;2022-10-16T01:06:35;100407.03;;;15.27;67.43
72560;BME280;62987;52.382;9.752;2022-10-16T01:09:12;100408.53;;;15.31;67.47
72560;BME280;62987;52.382;9.752;2022-10-16T01:11:50;100407.22;;;15.24;67.84
72560;BME280;62987;52.382;9.752;2022-10-16T01:14:27;100411.63;;;15.25;68.43
72560;BME280;62987;52.382;9.752;2022-10-16T01:17:04;100409.31;;;15.33;68.70
72560;BME280;62987;52.382;9.752;2022-10-16T01:19:50;100403.19;;;15.31;69.22
72560;BME280;62987;52.382;9.752;2022-10-16T01:22:26;100406.63;;;15.33;69.29
72560;BME280;62987;52.382;9.752;2022-10-16T01:25:00;100399.53;;;15.32;69.36
72560;BME280;62987;52.382;9.752;2022-10-16T01:27:35;100419.56;;;15.27;70.12
72560;BME280;62987;52.382;9.752;2022-10-16T01:30:08;100423.97;;;15.28;70.59
72560;BME280;62987;52.382;9.752;2022-10-16T01:32:42;100428.09;;;15.19;70.77
72560;BME280;62987;52.382;9.752;2022-10-16T01:35:18;100427.94;;;15.22;70.90
72560;BME280;62987;52.382;9.752;2022-10-16T01:37:51;100419.03;;;15.22;70.91
72560;BME280;62987;52.382;9.752;2022-10-16T01:40:21;100428.66;;;15.24;71.07
72560;BME280;62987;52.382;9.752;2022-10-16T01:42:58;100434.41;;;15.18;71.66
72560;BME280;62987;52.382;9.752;2022-10-16T01:45:28;100430.47;;;15.24;71.51
72560;BME280;62987;52.382;9.752;2022-10-16T01:48:00;100422.97;;;15.16;72.00
72560;BME280;62987;52.382;9.752;2022-10-16T01:50:33;100421.47;;;15.25;71.59
72560;BME280;62987;52.382;9.752;2022-10-16T01:53:04;100437.28;;;15.29;71.47
72560;BME280;62987;52.382;9.752;2022-10-16T01:55:37;100429.06;;;15.18;71.93
72560;BME280;62987;52.382;9.752;2022-10-16T01:58:12;100429.19;;;15.16;72.02
72560;BME280;62987;52.382;9.752;2022-10-16T02:00:44;100422.19;;;15.14;72.32
72560;BME280;62987;52.382;9.752;2022-10-16T02:03:16;100426.38;;;15.18;72.23
72560;BME280;62987;52.382;9.752;2022-10-16T02:05:51;100422.38;;;15.11;72.66
72560;BME280;62987;52.382;9.752;2022-10-16T02:08:21;100423.91;;;15.15;72.55
72560;BME280;62987;52.382;9.752;2022-10-16T02:10:50;100433.31;;;15.08;72.74
72560;BME280;62987;52.382;9.752;2022-10-16T02:13:26;100430.81;;;15.05;72.67
72560;BME280;62987;52.382;9.752;2022-10-16T02:15:55;100441.44;;;15.06;72.85
72560;BME280;62987;52.382;9.752;2022-10-16T02:18:23;100441.66;;;15.03;72.90
72560;BME280;62987;52.382;9.752;2022-10-16T02:20:58;100434.13;;;14.96;73.00
72560;BME280;62987;52.382;9.752;2022-10-16T02:23:35;100444.63;;;14.99;72.97
72560;BME280;62987;52.382;9.752;2022-10-16T02:26:08;100446.19;;;14.89;73.06
72560;BME280;62987;52.382;9.752;2022-10-16T02:28:42;100441.41;;;14.79;73.78
72560;BME280;62987;52.382;9.752;2022-10-16T02:31:14;100453.28;;;14.75;73.31
72560;BME280;62987;52.382;9.752;2022-10-16T02:33:45;100456.72;;;14.77;73.18
72560;BME280;62987;52.382;9.752;2022-10-16T02:36:14;100463.38;;;14.85;72.89
72560;BME280;62987;52.382;9.752;2022-10-16T02:38:42;100462.06;;;14.77;72.81
72560;BME280;62987;52.382;9.752;2022-10-16T02:41:10;100449.44;;;14.79;72.73
72560;BME280;62987;52.382;9.752;2022-10-16T02:43:40;100441.22;;;14.83;72.61
72560;BME280;62987;52.382;9.752;2022-10-16T02:46:08;100443.91;;;14.83;72.77
72560;BME280;62987;52.382;9.752;2022-10-16T02:48:35;100448.88;;;14.74;73.35
72560;BME280;62987;52.382;9.752;2022-10-16T02:51:04;100447.34;;;14.70;74.20
72560;BME280;62987;52.382;9.752;2022-10-16T02:53:32;100450.13;;;14.69;74.66
72560;BME280;62987;52.382;9.752;2022-10-16T02:56:00;100452.50;;;14.59;75.28
72560;BME280;62987;52.382;9.752;2022-10-16T02:58:28;100446.50;;;14.56;75.62
72560;BME280;62987;52.382;9.752;2022-10-16T03:00:57;100456.25;;;14.57;76.29
72560;BME280;62987;52.382;9.752;2022-10-16T03:03:25;100452.50;;;14.59;76.65
72560;BME280;62987;52.382;9.752;2022-10-16T03:05:53;100455.16;;;14.59;76.96
72560;BME280;62987;52.382;9.752;2022-10-16T03:08:21;100443.03;;;14.54;77.09
72560;BME280;62987;52.382;9.752;2022-10-16T03:10:51;100449.81;;;14.59;77.42
72560;BME280;62987;52.382;9.752;2022-10-16T03:13:19;100444.09;;;14.51;77.37
72560;BME280;62987;52.382;9.752;2022-10-16T03:15:48;100454.59;;;14.54;77.51
72560;BME280;62987;52.382;9.752;2022-10-16T03:18:17;100463.03;;;14.48;77.76
72560;BME280;62987;52.382;9.752;2022-10-16T03:20:45;100462.06;;;14.49;77.76
72560;BME280;62987;52.382;9.752;2022-10-16T03:23:13;100464.34;;;14.41;78.31
72560;BME280;62987;52.382;9.752;2022-10-16T03:25:41;100465.22;;;14.42;78.36
72560;BME280;62987;52.382;9.752;2022-10-16T03:28:09;100465.22;;;14.42;78.55
72560;BME280;62987;52.382;9.752;2022-10-16T03:30:38;100464.91;;;14.46;78.21
72560;BME280;62987;52.382;9.752;2022-10-16T03:33:07;100459.00;;;14.41;78.47
72560;BME280;62987;52.382;9.752;2022-10-16T03:35:36;100457.09;;;14.43;78.80
72560;BME280;62987;52.382;9.752;2022-10-16T03:38:04;100456.31;;;14.41;78.37
72560;BME280;62987;52.382;9.752;2022-10-16T03:40:32;100456.66;;;14.35;78.46
72560;BME280;62987;52.382;9.752;2022-10-16T03:43:00;100463.56;;;14.25;79.07
72560;BME280;62987;52.382;9.752;2022-10-16T03:45:28;100452.06;;;14.09;79.65
72560;BME280;62987;52.382;9.752;2022-10-16T03:47:56;100461.44;;;14.16;79.62
72560;BME280;62987;52.382;9.752;2022-10-16T03:50:24;100460.28;;;14.06;80.01
72560;BME280;62987;52.382;9.752;2022-10-16T03:52:53;100461.59;;;13.98;80.19
72560;BME280;62987;52.382;9.752;2022-10-16T03:55:21;100464.16;;;14.00;80.32
72560;BME280;62987;52.382;9.752;2022-10-16T03:57:49;100456.34;;;13.97;80.34
72560;BME280;62987;52.382;9.752;2022-10-16T04:00:17;100460.41;;;13.88;80.41
72560;BME280;62987;52.382;9.752;2022-10-16T04:02:45;100460.78;;;13.82;81.04
72560;BME280;62987;52.382;9.752;2022-10-16T04:05:14;100460.78;;;13.82;81.06
72560;BME280;62987;52.382;9.752;2022-10-16T04:07:42;100464.66;;;13.77;81.30
72560;BME280;62987;52.382;9.752;2022-10-16T04:10:11;100469.00;;;13.79;81.22
72560;BME280;62987;52.382;9.752;2022-10-16T04:12:39;100471.81;;;13.76;81.33
72560;BME280;62987;52.382;9.752;2022-10-16T04:15:07;100477.63;;;13.69;81.65
72560;BME280;62987;52.382;9.752;2022-10-16T04:17:36;100491.69;;;13.72;81.47
72560;BME280;62987;52.382;9.752;2022-10-16T04:20:05;100493.00;;;13.65;81.59
72560;BME280;62987;52.382;9.752;2022-10-16T04:22:33;100498.34;;;13.65;81.75
72560;BME280;62987;52.382;9.752;2022-10-16T04:25:02;100492.22;;;13.63;81.98
72560;BME280;62987;52.382;9.752;2022-10-16T04:27:31;100487.91;;;13.60;81.93
72560;BME280;62987;52.382;9.752;2022-10-16T04:29:59;100489.81;;;13.58;82.11
72560;BME280;62987;52.382;9.752;2022-10-16T04:32:27;100487.66;;;13.65;82.50
72560;BME280;62987;52.382;9.752;2022-10-16T04:34:55;100492.03;;;13.66;81.94
72560;BME280;62987;52.382;9.752;2022-10-16T04:37:24;100502.97;;;13.77;82.15
72560;BME280;62987;52.382;9.752;2022-10-16T04:39:53;100504.41;;;13.83;81.81
72560;BME280;62987;52.382;9.752;2022-10-16T04:42:21;100498.44;;;13.93;81.65
72560;BME280;62987;52.382;9.752;2022-10-16T04:44:51;100494.63;;;13.97;81.18
72560;BME280;62987;52.382;9.752;2022-10-16T04:47:19;100495.50;;;13.98;81.24
72560;BME280;62987;52.382;9.752;2022-10-16T04:49:47;100495.22;;;14.02;80.94
72560;BME280;62987;52.382;9.752;2022-10-16T04:52:16;100483.84;;;13.99;81.39
72560;BME280;62987;52.382;9.752;2022-10-16T04:54:45;100497.09;;;14.00;81.20
72560;BME280;62987;52.382;9.752;2022-10-16T04:57:13;100504.25;;;14.00;81.34
72560;BME280;62987;52.382;9.752;2022-10-16T04:59:44;100495.13;;;14.04;80.92
72560;BME280;62987;52.382;9.752;2022-10-16T05:02:13;100494.44;;;14.00;81.22
72560;BME280;62987;52.382;9.752;2022-10-16T05:04:41;100505.91;;;14.02;81.05
72560;BME280;62987;52.382;9.752;2022-10-16T05:07:09;100508.78;;;13.99;81.28
72560;BME280;62987;52.382;9.752;2022-10-16T05:09:37;100508.59;;;14.02;81.16
72560;BME280;62987;52.382;9.752;2022-10-16T05:12:05;100515.56;;;14.05;80.99
72560;BME280;62987;52.382;9.752;2022-10-16T05:14:33;100529.81;;;14.06;81.09
72560;BME280;62987;52.382;9.752;2022-10-16T05:17:01;100509.38;;;14.05;80.82
72560;BME280;62987;52.382;9.752;2022-10-16T05:19:30;100528.94;;;14.05;80.86
72560;BME280;62987;52.382;9.752;2022-10-16T05:21:58;100524.25;;;14.09;80.83
72560;BME280;62987;52.382;9.752;2022-10-16T05:24:26;100518.75;;;14.12;80.78
72560;BME280;62987;52.382;9.752;2022-10-16T05:26:54;100539.28;;;14.11;80.48
72560;BME280;62987;52.382;9.752;2022-10-16T05:29:22;100532.13;;;14.12;80.86
72560;BME280;62987;52.382;9.752;2022-10-16T05:31:51;100526.56;;;14.15;80.53
72560;BME280;62987;52.382;9.752;2022-10-16T05:34:20;100554.69;;;14.22;80.57
72560;BME280;62987;52.382;9.752;2022-10-16T05:36:49;100562.63;;;14.23;80.29
72560;BME280;62987;52.382;9.752;2022-10-16T05:39:17;100551.47;;;14.31;80.07
72560;BME280;62987;52.382;9.752;2022-10-16T05:41:45;100539.91;;;14.30;79.92
72560;BME280;62987;52.382;9.752;2022-10-16T05:44:13;100549.81;;;14.28;80.13
72560;BME280;62987;52.382;9.752;2022-10-16T05:46:41;100548.22;;;14.26;80.12
72560;BME280;62987;52.382;9.752;2022-10-16T05:49:09;100540.94;;;14.28;80.03
72560;BME280;62987;52.382;9.752;2022-10-16T05:51:37;100535.66;;;14.26;79.96
72560;BME280;62987;52.382;9.752;2022-10-16T05:54:06;100540.53;;;14.20;80.20
72560;BME280;62987;52.382;9.752;2022-10-16T05:56:35;100551.34;;;14.18;80.38
72560;BME280;62987;52.382;9.752;2022-10-16T05:59:03;100547.81;;;14.18;80.54
72560;BME280;62987;52.382;9.752;2022-10-16T06:01:31;100560.41;;;14.16;80.40
72560;BME280;62987;52.382;9.752;2022-10-16T06:03:59;100551.44;;;14.17;80.57
72560;BME280;62987;52.382;9.752;2022-10-16T06:06:28;100564.53;;;14.21;80.36
72560;BME280;62987;52.382;9.752;2022-10-16T06:08:57;100558.50;;;14.18;80.38
72560;BME280;62987;52.382;9.752;2022-10-16T06:11:29;100556.94;;;14.14;80.37
72560;BME280;62987;52.382;9.752;2022-10-16T06:13:59;100564.72;;;14.18;80.50
72560;BME280;62987;52.382;9.752;2022-10-16T06:16:29;100562.13;;;14.17;80.14
72560;BME280;62987;52.382;9.752;2022-10-16T06:18:57;100554.97;;;14.17;79.86
72560;BME280;62987;52.382;9.752;2022-10-16T06:21:27;100559.59;;;14.29;79.40
72560;BME280;62987;52.382;9.752;2022-10-16T06:23:56;100568.25;;;14.49;78.74
72560;BME280;62987;52.382;9.752;2022-10-16T06:26:26;100582.72;;;14.60;77.88
72560;BME280;62987;52.382;9.752;2022-10-16T06:28:56;100575.09;;;14.68;77.03
72560;BME280;62987;52.382;9.752;2022-10-16T06:31:25;100592.97;;;14.82;76.84
72560;BME280;62987;52.382;9.752;2022-10-16T06:33:56;100594.41;;;14.88;76.56
72560;BME280;62987;52.382;9.752;2022-10-16T06:36:25;100591.91;;;14.85;76.86
72560;BME280;62987;52.382;9.752;2022-10-16T06:38:53;100590.00;;;14.87;76.54
72560;BME280;62987;52.382;9.752;2022-10-16T06:41:22;100599.47;;;14.92;76.43
72560;BME280;62987;52.382;9.752;2022-10-16T06:43:50;100595.94;;;15.06;76.10
72560;BME280;62987;52.382;9.752;2022-10-16T06:46:22;100601.53;;;15.03;76.09
72560;BME280;62987;52.382;9.752;2022-10-16T06:48:50;100611.84;;;15.09;76.04
72560;BME280;62987;52.382;9.752;2022-10-16T06:51:19;100608.97;;;15.26;75.33
72560;BME280;62987;52.382;9.752;2022-10-16T06:53:49;100607.63;;;15.47;74.43
72560;BME280;62987;52.382;9.752;2022-10-16T06:56:30;100616.91;;;15.42;74.62
72560;BME280;62987;52.382;9.752;2022-10-16T06:58:59;100612.75;;;15.50;74.34
72560;BME280;62987;52.382;9.752;2022-10-16T07:01:29;100613.56;;;15.52;74.10
72560;BME280;62987;52.382;9.752;2022-10-16T07:03:57;100608.97;;;15.54;74.16
72560;BME280;62987;52.382;9.752;2022-10-16T07:06:26;100602.03;;;15.50;74.53
72560;BME280;62987;52.382;9.752;2022-10-16T07:08:55;100612.00;;;15.63;74.27
72560;BME280;62987;52.382;9.752;2022-10-16T07:11:23;100617.09;;;15.67;73.83
72560;BME280;62987;52.382;9.752;2022-10-16T07:13:51;100610.63;;;15.84;73.18
72560;BME280;62987;52.382;9.752;2022-10-16T07:16:23;100625.44;;;15.89;73.00
72560;BME280;62987;52.382;9.752;2022-10-16T07:18:55;100631.59;;;15.91;72.99
72560;BME280;62987;52.382;9.752;2022-10-16T07:21:27;100640.03;;;15.85;72.74
72560;BME280;62987;52.382;9.752;2022-10-16T07:23:58;100626.34;;;15.76;72.73
72560;BME280;62987;52.382;9.752;2022-10-16T07:26:29;100634.66;;;15.85;72.26
72560;BME280;62987;52.382;9.752;2022-10-16T07:28:58;100629.50;;;15.82;72.82
72560;BME280;62987;52.382;9.752;2022-10-16T07:31:26;100640.19;;;15.96;72.30
72560;BME280;62987;52.382;9.752;2022-10-16T07:33:58;100639.53;;;15.93;72.24
72560;BME280;62987;52.382;9.752;2022-10-16T07:36:26;100650.59;;;16.01;72.24
72560;BME280;62987;52.382;9.752;2022-10-16T07:38:54;100650.44;;;16.04;71.75
72560;BME280;62987;52.382;9.752;2022-10-16T07:41:26;100660.75;;;16.37;70.69
72560;BME280;62987;52.382;9.752;2022-10-16T07:43:54;100662.25;;;16.68;69.39
72560;BME280;62987;52.382;9.752;2022-10-16T07:46:24;100665.94;;;16.92;68.47
72560;BME280;62987;52.382;9.752;2022-10-16T07:48:52;100679.84;;;17.11;67.53
72560;BME280;62987;52.382;9.752;2022-10-16T07:51:23;100677.03;;;17.26;66.81
72560;BME280;62987;52.382;9.752;2022-10-16T07:53:52;100686.41;;;17.20;66.90
72560;BME280;62987;52.382;9.752;2022-10-16T07:56:21;100686.47;;;17.94;64.67
72560;BME280;62987;52.382;9.752;2022-10-16T07:58:49;100690.78;;;17.84;64.72
72560;BME280;62987;52.382;9.752;2022-10-16T08:01:18;100661.91;;;18.70;60.90
72560;BME280;62987;52.382;9.752;2022-10-16T08:03:48;100678.00;;;20.07;56.38
72560;BME280;62987;52.382;9.752;2022-10-16T08:06:18;100687.22;;;19.93;57.07
72560;BME280;62987;52.382;9.752;2022-10-16T08:08:54;100683.63;;;20.90;54.44
72560;BME280;62987;52.382;9.752;2022-10-16T08:11:22;100702.25;;;20.41;55.61
72560;BME280;62987;52.382;9.752;2022-10-16T08:13:51;100710.44;;;19.96;56.80
72560;BME280;62987;52.382;9.752;2022-10-16T08:16:19;100711.88;;;20.00;56.61
72560;BME280;62987;52.382;9.752;2022-10-16T08:18:47;100681.09;;;19.58;56.41
72560;BME280;62987;52.382;9.752;2022-10-16T08:21:17;100705.75;;;19.53;57.82
72560;BME280;62987;52.382;9.752;2022-10-16T08:23:47;100712.28;;;19.62;57.73
72560;BME280;62987;52.382;9.752;2022-10-16T08:26:25;100706.13;;;19.60;57.40
72560;BME280;62987;52.382;9.752;2022-10-16T08:28:54;100719.00;;;19.68;57.17
72560;BME280;62987;52.382;9.752;2022-10-16T08:31:22;100711.91;;;19.89;56.66
72560;BME280;62987;52.382;9.752;2022-10-16T08:33:50;100703.72;;;20.45;54.85
72560;BME280;62987;52.382;9.752;2022-10-16T08:36:19;100714.44;;;20.13;55.55
72560;BME280;62987;52.382;9.752;2022-10-16T08:38:48;100730.00;;;19.42;57.84
72560;BME280;62987;52.382;9.752;2022-10-16T08:41:30;100725.13;;;19.59;56.78
72560;BME280;62987;52.382;9.752;2022-10-16T08:44:42;100735.91;;;20.37;54.65
72560;BME280;62987;52.382;9.752;2022-10-16T08:47:20;100730.53;;;20.68;53.31
72560;BME280;62987;52.382;9.752;2022-10-16T08:49:56;100721.38;;;20.60;53.24
72560;BME280;62987;52.382;9.752;2022-10-16T08:52:28;100741.81;;;19.52;56.63
72560;BME280;62987;52.382;9.752;2022-10-16T08:54:57;100738.63;;;19.12;58.56
72560;BME280;62987;52.382;9.752;2022-10-16T08:57:27;100739.94;;;19.07;58.66
72560;BME280;62987;52.382;9.752;2022-10-16T08:59:59;100738.13;;;19.18;58.35
72560;BME280;62987;52.382;9.752;2022-10-16T09:02:31;100749.31;;;19.25;58.42
72560;BME280;62987;52.382;9.752;2022-10-16T09:08:03;100741.97;;;19.62;57.56
72560;BME280;62987;52.382;9.752;2022-10-16T09:10:46;100736.66;;;19.72;56.93
72560;BME280;62987;52.382;9.752;2022-10-16T09:13:25;100751.75;;;19.96;56.12
72560;BME280;62987;52.382;9.752;2022-10-16T09:16:01;100749.28;;;20.27;55.09
72560;BME280;62987;52.382;9.752;2022-10-16T09:18:35;100753.69;;;21.25;52.10
72560;BME280;62987;52.382;9.752;2022-10-16T09:21:12;100748.56;;;22.53;48.09
72560;BME280;62987;52.382;9.752;2022-10-16T09:23:42;100751.47;;;21.91;49.20
72560;BME280;62987;52.382;9.752;2022-10-16T09:26:13;100760.44;;;22.12;48.92
72560;BME280;62987;52.382;9.752;2022-10-16T09:28:43;100762.34;;;22.81;46.49
72560;BME280;62987;52.382;9.752;2022-10-16T09:31:15;100769.06;;;22.27;48.58
72560;BME280;62987;52.382;9.752;2022-10-16T09:33:45;100772.50;;;22.29;48.70
72560;BME280;62987;52.382;9.752;2022-10-16T09:36:14;100776.69;;;21.61;50.77
72560;BME280;62987;52.382;9.752;2022-10-16T09:38:43;100779.38;;;21.20;51.97
72560;BME280;62987;52.382;9.752;2022-10-16T09:41:16;100771.97;;;24.26;43.91
72560;BME280;62987;52.382;9.752;2022-10-16T09:43:53;100771.22;;;23.11;45.78
72560;BME280;62987;52.382;9.752;2022-10-16T09:46:25;100779.66;;;23.94;44.57
72560;BME280;62987;52.382;9.752;2022-10-16T09:48:56;100789.19;;;23.61;44.18
72560;BME280;62987;52.382;9.752;2022-10-16T09:51:26;100797.50;;;23.11;45.14
72560;BME280;62987;52.382;9.752;2022-10-16T09:53:57;100780.91;;;22.95;46.14
72560;BME280;62987;52.382;9.752;2022-10-16T09:56:28;100798.88;;;23.73;44.13
72560;BME280;62987;52.382;9.752;2022-10-16T09:58:59;100780.84;;;25.44;39.82
72560;BME280;62987;52.382;9.752;2022-10-16T10:01:32;100797.50;;;28.08;34.77
72560;BME280;62987;52.382;9.752;2022-10-16T10:04:03;100802.25;;;30.06;31.11
72560;BME280;62987;52.382;9.752;2022-10-16T10:06:34;100803.63;;;31.32;27.90
72560;BME280;62987;52.382;9.752;2022-10-16T10:09:13;100805.69;;;31.94;27.01
72560;BME280;62987;52.382;9.752;2022-10-16T10:11:47;100793.06;;;28.93;31.41
72560;BME280;62987;52.382;9.752;2022-10-16T10:14:36;100807.16;;;27.79;33.61
72560;BME280;62987;52.382;9.752;2022-10-16T10:17:14;100807.22;;;25.79;38.10
72560;BME280;62987;52.382;9.752;2022-10-16T10:19:47;100810.22;;;24.69;38.50
72560;BME280;62987;52.382;9.752;2022-10-16T10:22:30;100808.16;;;24.81;38.84
72560;BME280;62987;52.382;9.752;2022-10-16T10:25:15;100819.91;;;24.82;39.96
72560;BME280;62987;52.382;9.752;2022-10-16T10:27:58;100826.03;;;22.96;43.55
72560;BME280;62987;52.382;9.752;2022-10-16T10:30:34;100820.25;;;22.70;43.78
72560;BME280;62987;52.382;9.752;2022-10-16T10:33:14;100829.66;;;22.16;44.75
72560;BME280;62987;52.382;9.752;2022-10-16T10:35:50;100828.06;;;21.31;46.50
72560;BME280;62987;52.382;9.752;2022-10-16T10:38:29;100834.50;;;21.07;47.58
72560;BME280;62987;52.382;9.752;2022-10-16T10:41:09;100840.66;;;24.28;40.57
72560;BME280;62987;52.382;9.752;2022-10-16T10:43:50;100831.53;;;25.72;37.06
72560;BME280;62987;52.382;9.752;2022-10-16T10:46:31;100840.50;;;26.42;35.35
72560;BME280;62987;52.382;9.752;2022-10-16T10:49:16;100840.81;;;27.72;34.12
72560;BME280;62987;52.382;9.752;2022-10-16T10:51:57;100845.84;;;26.26;35.72
72560;BME280;62987;52.382;9.752;2022-10-16T10:54:34;100860.25;;;23.66;40.77
72560;BME280;62987;52.382;9.752;2022-10-16T10:57:10;100844.88;;;25.83;37.10
72560;BME280;62987;52.382;9.752;2022-10-16T10:59:55;100834.81;;;25.58;36.85
72560;BME280;62987;52.382;9.752;2022-10-16T11:02:33;100848.81;;;23.53;39.87
72560;BME280;62987;52.382;9.752;2022-10-16T11:05:30;100827.16;;;23.80;39.87
72560;BME280;62987;52.382;9.752;2022-10-16T11:08:03;100837.50;;;24.60;38.84
72560;BME280;62987;52.382;9.752;2022-10-16T11:10:38;100856.94;;;24.18;39.50
72560;BME280;62987;52.382;9.752;2022-10-16T11:13:15;100837.34;;;24.24;39.57
72560;BME280;62987;52.382;9.752;2022-10-16T11:15:47;100843.31;;;24.38;39.35
72560;BME280;62987;52.382;9.752;2022-10-16T11:18:21;100845.63;;;25.94;35.46
72560;BME280;62987;52.382;9.752;2022-10-16T11:20:54;100851.25;;;28.56;31.40
72560;BME280;62987;52.382;9.752;2022-10-16T11:23:26;100855.47;;;29.06;29.81
72560;BME280;62987;52.382;9.752;2022-10-16T11:25:57;100851.84;;;29.13;29.64
72560;BME280;62987;52.382;9.752;2022-10-16T11:28:31;100843.28;;;26.50;33.57
72560;BME280;62987;52.382;9.752;2022-10-16T11:31:07;100851.00;;;26.29;34.04
72560;BME280;62987;52.382;9.752;2022-10-16T11:33:40;100859.28;;;24.50;38.06
72560;BME280;62987;52.382;9.752;2022-10-16T11:36:12;100858.44;;;25.75;35.93
72560;BME280;62987;52.382;9.752;2022-10-16T11:38:48;100872.22;;;28.00;31.06
72560;BME280;62987;52.382;9.752;2022-10-16T11:41:24;100850.31;;;27.11;32.13
72560;BME280;62987;52.382;9.752;2022-10-16T11:44:06;100874.13;;;27.83;31.09
72560;BME280;62987;52.382;9.752;2022-10-16T11:46:40;100871.31;;;26.09;35.11
72560;BME280;62987;52.382;9.752;2022-10-16T11:49:30;100868.13;;;28.20;31.34
72560;BME280;62987;52.382;9.752;2022-10-16T11:52:02;100862.22;;;26.94;33.14
72560;BME280;62987;52.382;9.752;2022-10-16T11:54:39;100851.66;;;25.08;37.45
72560;BME280;62987;52.382;9.752;2022-10-16T11:57:13;100859.78;;;23.41;41.34
72560;BME280;62987;52.382;9.752;2022-10-16T11:59:48;100868.88;;;23.02;42.60
72560;BME280;62987;52.382;9.752;2022-10-16T12:02:47;100868.31;;;23.08;42.92
72560;BME280;62987;52.382;9.752;2022-10-16T12:05:24;100878.69;;;22.74;43.40
72560;BME280;62987;52.382;9.752;2022-10-16T12:08:02;100882.50;;;22.11;44.20
72560;BME280;62987;52.382;9.752;2022-10-16T12:10:32;100877.81;;;22.13;44.42
72560;BME280;62987;52.382;9.752;2022-10-16T12:13:33;100891.06;;;22.67;43.77
72560;BME280;62987;52.382;9.752;2022-10-16T12:16:07;100887.31;;;21.86;45.36
72560;BME280;62987;52.382;9.752;2022-10-16T12:18:47;100900.72;;;21.67;45.31
72560;BME280;62987;52.382;9.752;2022-10-16T12:21:17;100905.88;;;21.70;45.23
72560;BME280;62987;52.382;9.752;2022-10-16T12:23:50;100888.75;;;22.02;44.45
72560;BME280;62987;52.382;9.752;2022-10-16T12:26:25;100887.19;;;21.88;44.56
72560;BME280;62987;52.382;9.752;2022-10-16T12:29:08;100974.69;;;22.41;42.32
72560;BME280;62987;52.382;9.752;2022-10-16T12:31:39;100891.44;;;22.62;42.22
72560;BME280;62987;52.382;9.752;2022-10-16T12:34:27;101050.91;;;23.60;40.30
72560;BME280;62987;52.382;9.752;2022-10-16T12:37:08;100886.28;;;22.90;40.94
72560;BME280;62987;52.382;9.752;2022-10-16T12:39:37;100875.06;;;22.03;43.46
72560;BME280;62987;52.382;9.752;2022-10-16T12:42:20;100896.41;;;21.97;43.76
72560;BME280;62987;52.382;9.752;2022-10-16T12:44:50;100893.69;;;21.97;43.56
72560;BME280;62987;52.382;9.752;2022-10-16T12:47:20;100894.63;;;22.37;42.77
72560;BME280;62987;52.382;9.752;2022-10-16T12:49:50;100900.59;;;22.31;43.26
72560;BME280;62987;52.382;9.752;2022-10-16T12:52:37;100904.75;;;21.93;43.06
72560;BME280;62987;52.382;9.752;2022-10-16T12:55:15;100905.25;;;21.99;43.19
72560;BME280;62987;52.382;9.752;2022-10-16T12:58:05;100910.63;;;21.78;43.46
72560;BME280;62987;52.382;9.752;2022-10-16T13:00:44;100911.09;;;21.62;44.81
72560;BME280;62987;52.382;9.752;2022-10-16T13:03:53;100910.81;;;21.33;44.83
72560;BME280;62987;52.382;9.752;2022-10-16T13:06:32;100919.81;;;21.34;44.95
72560;BME280;62987;52.382;9.752;2022-10-16T13:09:16;100920.69;;;21.23;44.57
72560;BME280;62987;52.382;9.752;2022-10-16T13:11:58;100920.81;;;21.65;44.12
72560;BME280;62987;52.382;9.752;2022-10-16T13:14:41;100928.84;;;22.28;42.41
72560;BME280;62987;52.382;9.752;2022-10-16T13:17:19;100925.53;;;22.04;43.34
72560;BME280;62987;52.382;9.752;2022-10-16T13:19:58;100928.03;;;22.17;42.84